USSSUSRR

Guest
Details From USSS - Koltsovo
To USRR - Surgut
Flight Number -
Tags Generated
Created
Modified
Stats Distance 476 nm / 882 km
Max Altitude 0 ft / 0 m
Waypoints 4
Social Downloads 3
Likes 0
Share VATSIM

Download

Looking for another format? Having issues loading an existing format? Contact us
Advertisement - Login to hide

Notes

Generated

Route

USSS MOTEK GK USRR

ID Type Via Altitude Latitude Longitude Leg Dist Tot Dist Heading (true) Name
O USSS APT - 0 ft / 0 m 56.74481˚ 60.78140˚ - 0 nm - -
MOTEK FIX - 0 ft / 0 m 59.38333˚ 67.25000˚ 259 nm 259 nm 50° / 55° -
GK NDB - 0 ft / 0 m 61.34333˚ 73.30000˚ 214 nm 473 nm 54° / 59° SURGUT NDB
O USRR APT - 0 ft / 0 m 61.34364˚ 73.37581˚ 2 nm 476 nm 89° / 90° -

Altitude Profile

Advertisement - Login to hide

Weather


0- 5 10 15 20 25 30 35+ Temperature / ° C

Clouds and Precipitation
Forecast for 2017-12-14 00:00 UTC. Updated 2 hours ago

Ground ~20,000 ft ~40,000 ft Winds

USSS

Details ICAO USSS (SVX)
Name KOLTSOVO
Region Russia
Timezone Asia/Yekaterinburg (UTC+5.0)
Stats Elevation 764 ft / 233 m (AMSL)
Location 56.743108° 60.802727°
Runways 2
Magnetic Variation 14.863° E

METAR

USSS 132030Z 12002MPS 6000 NSC M20/M22 Q1034 R08L/420260 NOSIG RMK QFE755/1007

Decode

TAF

TAF USSS 131950Z 1321/1421 14004MPS 5000 BR BKN015 BECMG 1404/1406 9999 NSW

Decode

Departure Runways

ID Width Length Bearing (true) Bearing (mag) Surface Threshold Offset Overrun Length
08L 148 ft / 45 m 8,172 ft / 2,491 m 90.13° 75.27° Asphalt 0 ft / 0 m 230 ft / 70 m
08R 174 ft / 53 m 9,861 ft / 3,006 m 94.09° 79.23° Concrete 246 ft / 75 m 165 ft / 50 m
26L 174 ft / 53 m 9,861 ft / 3,006 m 274.14° 259.28° Concrete 1,066 ft / 325 m 165 ft / 50 m
26R 148 ft / 45 m 8,172 ft / 2,491 m 270.17° 255.31° Asphalt 0 ft / 0 m 220 ft / 67 m

USRR

Details ICAO USRR (SGC)
Name SURGUT
Region Russia
Timezone Asia/Yekaterinburg (UTC+5.0)
Stats Elevation 200 ft / 61 m (AMSL)
Location 61.343693° 73.401842°
Runways 1
Magnetic Variation 17.100° E

METAR

USRR 132030Z 22003MPS 6000 BKN007 M17/M19 Q1036 R25/39//40 NOSIG RMK OBST OBSC QFE771

Decode

TAF

TAF USRR 131955Z 1321/1421 22004MPS 4000 BR BKN005 TEMPO 1321/1404 0800 FZFG VV002 TEMPO 1404/1412 2000 BR BKN003

Decode

Destination Runways

ID Width Length Bearing (true) Bearing (mag) Surface Threshold Offset Overrun Length
07 148 ft / 45 m 9,112 ft / 2,778 m 89.72° 72.62° Asphalt 0 ft / 0 m 165 ft / 50 m
25 148 ft / 45 m 9,112 ft / 2,778 m 269.76° 252.66° Asphalt 0 ft / 0 m 165 ft / 50 m

Popular Alternatives